sensor_id;sensor_type;location;lat;lon;timestamp;temperature;humidity
6146;DHT22;3104;50.348;7.620;2022-11-24T00:00:51;9.00;99.90
6146;DHT22;3104;50.348;7.620;2022-11-24T00:03:17;8.90;99.90
6146;DHT22;3104;50.348;7.620;2022-11-24T00:05:43;8.80;99.90
6146;DHT22;3104;50.348;7.620;2022-11-24T00:08:08;8.80;99.90
6146;DHT22;3104;50.348;7.620;2022-11-24T00:10:34;8.80;99.90
6146;DHT22;3104;50.348;7.620;2022-11-24T00:13:00;8.70;99.90
6146;DHT22;3104;50.348;7.620;2022-11-24T00:15:25;8.60;99.90
6146;DHT22;3104;50.348;7.620;2022-11-24T00:17:51;8.60;99.90
6146;DHT22;3104;50.348;7.620;2022-11-24T00:20:17;8.60;99.90
6146;DHT22;3104;50.348;7.620;2022-11-24T00:22:43;8.70;99.90
6146;DHT22;3104;50.348;7.620;2022-11-24T00:25:08;8.80;99.90
6146;DHT22;3104;50.348;7.620;2022-11-24T00:27:34;8.90;99.90
6146;DHT22;3104;50.348;7.620;2022-11-24T00:30:00;8.90;99.90
6146;DHT22;3104;50.348;7.620;2022-11-24T00:32:29;8.90;99.90
6146;DHT22;3104;50.348;7.620;2022-11-24T00:34:55;8.90;99.90
6146;DHT22;3104;50.348;7.620;2022-11-24T00:37:21;9.00;99.90
6146;DHT22;3104;50.348;7.620;2022-11-24T00:39:46;9.00;99.90
6146;DHT22;3104;50.348;7.620;2022-11-24T00:42:12;9.00;99.90
6146;DHT22;3104;50.348;7.620;2022-11-24T00:44:39;9.00;99.90
6146;DHT22;3104;50.348;7.620;2022-11-24T00:47:05;9.00;99.90
6146;DHT22;3104;50.348;7.620;2022-11-24T00:49:30;9.00;99.90
6146;DHT22;3104;50.348;7.620;2022-11-24T00:51:56;9.00;99.90
6146;DHT22;3104;50.348;7.620;2022-11-24T00:54:22;9.00;99.90
6146;DHT22;3104;50.348;7.620;2022-11-24T00:56:47;9.00;99.90
6146;DHT22;3104;50.348;7.620;2022-11-24T00:59:13;9.00;99.90
6146;DHT22;3104;50.348;7.620;2022-11-24T01:01:39;9.10;99.90
6146;DHT22;3104;50.348;7.620;2022-11-24T01:04:06;9.10;99.90
6146;DHT22;3104;50.348;7.620;2022-11-24T01:06:31;9.10;99.90
6146;DHT22;3104;50.348;7.620;2022-11-24T01:08:58;9.10;99.90
6146;DHT22;3104;50.348;7.620;2022-11-24T01:11:31;9.10;99.90
6146;DHT22;3104;50.348;7.620;2022-11-24T01:14:18;9.20;99.90
6146;DHT22;3104;50.348;7.620;2022-11-24T01:16:44;9.20;99.90
6146;DHT22;3104;50.348;7.620;2022-11-24T01:19:09;9.10;99.90
6146;DHT22;3104;50.348;7.620;2022-11-24T01:21:35;9.10;99.90
6146;DHT22;3104;50.348;7.620;2022-11-24T01:24:00;9.20;99.90
6146;DHT22;3104;50.348;7.620;2022-11-24T01:26:26;9.10;99.90
6146;DHT22;3104;50.348;7.620;2022-11-24T01:28:53;9.10;99.90
6146;DHT22;3104;50.348;7.620;2022-11-24T01:31:20;9.10;99.90
6146;DHT22;3104;50.348;7.620;2022-11-24T01:33:45;9.20;99.90
6146;DHT22;3104;50.348;7.620;2022-11-24T01:36:11;9.20;99.90
6146;DHT22;3104;50.348;7.620;2022-11-24T01:38:37;9.20;99.90
6146;DHT22;3104;50.348;7.620;2022-11-24T01:41:19;9.20;99.90
6146;DHT22;3104;50.348;7.620;2022-11-24T01:43:45;9.20;99.90
6146;DHT22;3104;50.348;7.620;2022-11-24T01:49:08;9.20;99.90
6146;DHT22;3104;50.348;7.620;2022-11-24T01:51:32;9.20;99.90
6146;DHT22;3104;50.348;7.620;2022-11-24T01:54:28;9.30;99.90
6146;DHT22;3104;50.348;7.620;2022-11-24T01:56:55;9.30;99.90
6146;DHT22;3104;50.348;7.620;2022-11-24T01:59:22;9.30;99.90
6146;DHT22;3104;50.348;7.620;2022-11-24T02:01:50;9.30;99.90
6146;DHT22;3104;50.348;7.620;2022-11-24T02:04:19;9.30;99.90
6146;DHT22;3104;50.348;7.620;2022-11-24T02:06:49;9.40;99.90
6146;DHT22;3104;50.348;7.620;2022-11-24T02:10:03;9.40;99.90
6146;DHT22;3104;50.348;7.620;2022-11-24T02:12:09;9.30;99.90
6146;DHT22;3104;50.348;7.620;2022-11-24T02:14:35;9.30;99.90
6146;DHT22;3104;50.348;7.620;2022-11-24T02:17:02;9.30;99.90
6146;DHT22;3104;50.348;7.620;2022-11-24T02:22:20;9.40;99.90
6146;DHT22;3104;50.348;7.620;2022-11-24T02:27:23;9.50;99.90
6146;DHT22;3104;50.348;7.620;2022-11-24T02:29:49;9.40;99.90
6146;DHT22;3104;50.348;7.620;2022-11-24T02:32:15;9.40;99.90
6146;DHT22;3104;50.348;7.620;2022-11-24T02:34:41;9.30;99.90
6146;DHT22;3104;50.348;7.620;2022-11-24T02:37:06;9.40;99.90
6146;DHT22;3104;50.348;7.620;2022-11-24T02:39:33;9.40;99.90
6146;DHT22;3104;50.348;7.620;2022-11-24T02:42:10;9.50;99.90
6146;DHT22;3104;50.348;7.620;2022-11-24T02:44:42;9.50;99.90
6146;DHT22;3104;50.348;7.620;2022-11-24T02:47:11;9.60;99.90
6146;DHT22;3104;50.348;7.620;2022-11-24T02:49:37;9.60;99.90
6146;DHT22;3104;50.348;7.620;2022-11-24T02:52:03;9.60;99.90
6146;DHT22;3104;50.348;7.620;2022-11-24T02:54:29;9.60;99.90
6146;DHT22;3104;50.348;7.620;2022-11-24T02:56:55;9.70;99.90
6146;DHT22;3104;50.348;7.620;2022-11-24T02:59:21;9.50;99.90
6146;DHT22;3104;50.348;7.620;2022-11-24T03:01:47;9.60;99.90
6146;DHT22;3104;50.348;7.620;2022-11-24T03:04:12;9.50;99.90
6146;DHT22;3104;50.348;7.620;2022-11-24T03:06:38;9.60;99.90
6146;DHT22;3104;50.348;7.620;2022-11-24T03:09:04;9.70;99.90
6146;DHT22;3104;50.348;7.620;2022-11-24T03:11:30;9.50;99.90
6146;DHT22;3104;50.348;7.620;2022-11-24T03:13:56;9.60;99.90
6146;DHT22;3104;50.348;7.620;2022-11-24T03:16:21;9.60;99.90
6146;DHT22;3104;50.348;7.620;2022-11-24T03:18:50;9.50;99.90
6146;DHT22;3104;50.348;7.620;2022-11-24T03:21:15;9.50;99.90
6146;DHT22;3104;50.348;7.620;2022-11-24T03:23:41;9.60;99.90
6146;DHT22;3104;50.348;7.620;2022-11-24T03:26:08;9.60;99.90
6146;DHT22;3104;50.348;7.620;2022-11-24T03:28:34;9.60;99.90
6146;DHT22;3104;50.348;7.620;2022-11-24T03:31:00;9.60;99.90
6146;DHT22;3104;50.348;7.620;2022-11-24T03:33:26;9.50;99.90
6146;DHT22;3104;50.348;7.620;2022-11-24T03:35:52;9.60;99.90
6146;DHT22;3104;50.348;7.620;2022-11-24T03:38:18;9.60;99.90
6146;DHT22;3104;50.348;7.620;2022-11-24T03:40:43;9.70;99.90
6146;DHT22;3104;50.348;7.620;2022-11-24T03:43:09;9.70;99.90
6146;DHT22;3104;50.348;7.620;2022-11-24T03:45:34;9.60;99.90
6146;DHT22;3104;50.348;7.620;2022-11-24T03:48:00;9.60;99.90
6146;DHT22;3104;50.348;7.620;2022-11-24T03:50:26;9.50;99.90
6146;DHT22;3104;50.348;7.620;2022-11-24T03:52:52;9.50;99.90
6146;DHT22;3104;50.348;7.620;2022-11-24T03:55:17;9.70;99.90
6146;DHT22;3104;50.348;7.620;2022-11-24T03:57:43;9.70;99.90
6146;DHT22;3104;50.348;7.620;2022-11-24T04:00:10;9.70;99.90
6146;DHT22;3104;50.348;7.620;2022-11-24T04:02:38;9.70;99.90
6146;DHT22;3104;50.348;7.620;2022-11-24T04:05:06;9.70;99.90
6146;DHT22;3104;50.348;7.620;2022-11-24T04:07:32;9.70;99.90
6146;DHT22;3104;50.348;7.620;2022-11-24T04:09:57;9.70;99.90
6146;DHT22;3104;50.348;7.620;2022-11-24T04:12:23;9.70;99.90
6146;DHT22;3104;50.348;7.620;2022-11-24T04:15:07;9.70;99.90
6146;DHT22;3104;50.348;7.620;2022-11-24T04:17:33;9.70;99.90
6146;DHT22;3104;50.348;7.620;2022-11-24T04:19:58;9.70;99.90
6146;DHT22;3104;50.348;7.620;2022-11-24T04:22:24;9.50;99.90
6146;DHT22;3104;50.348;7.620;2022-11-24T04:24:49;9.60;99.90
6146;DHT22;3104;50.348;7.620;2022-11-24T04:27:15;9.60;99.90
6146;DHT22;3104;50.348;7.620;2022-11-24T04:29:41;9.60;99.90
6146;DHT22;3104;50.348;7.620;2022-11-24T04:32:06;9.60;99.90
6146;DHT22;3104;50.348;7.620;2022-11-24T04:34:33;9.70;99.90
6146;DHT22;3104;50.348;7.620;2022-11-24T04:36:59;9.70;99.90
6146;DHT22;3104;50.348;7.620;2022-11-24T04:39:24;9.80;99.90
6146;DHT22;3104;50.348;7.620;2022-11-24T04:41:50;9.90;99.90
6146;DHT22;3104;50.348;7.620;2022-11-24T04:44:15;9.80;99.90
6146;DHT22;3104;50.348;7.620;2022-11-24T04:46:42;9.60;99.90
6146;DHT22;3104;50.348;7.620;2022-11-24T04:49:08;9.70;99.90
6146;DHT22;3104;50.348;7.620;2022-11-24T04:51:38;9.90;99.90
6146;DHT22;3104;50.348;7.620;2022-11-24T04:54:08;9.90;99.90
6146;DHT22;3104;50.348;7.620;2022-11-24T04:56:34;9.90;99.90
6146;DHT22;3104;50.348;7.620;2022-11-24T04:59:00;9.80;99.90
6146;DHT22;3104;50.348;7.620;2022-11-24T05:01:26;9.80;99.90
6146;DHT22;3104;50.348;7.620;2022-11-24T05:03:55;9.80;99.90
6146;DHT22;3104;50.348;7.620;2022-11-24T05:06:22;9.70;99.90
6146;DHT22;3104;50.348;7.620;2022-11-24T05:08:51;9.60;99.90
6146;DHT22;3104;50.348;7.620;2022-11-24T05:11:18;9.60;99.90
6146;DHT22;3104;50.348;7.620;2022-11-24T05:13:44;9.70;99.90
6146;DHT22;3104;50.348;7.620;2022-11-24T05:16:10;9.70;99.90
6146;DHT22;3104;50.348;7.620;2022-11-24T05:18:35;9.70;99.90
6146;DHT22;3104;50.348;7.620;2022-11-24T05:21:03;9.70;99.90
6146;DHT22;3104;50.348;7.620;2022-11-24T05:23:29;9.80;99.90
6146;DHT22;3104;50.348;7.620;2022-11-24T05:26:01;9.70;99.90
6146;DHT22;3104;50.348;7.620;2022-11-24T05:28:27;9.80;99.90
6146;DHT22;3104;50.348;7.620;2022-11-24T05:30:53;9.80;99.90
6146;DHT22;3104;50.348;7.620;2022-11-24T05:33:19;9.90;99.90
6146;DHT22;3104;50.348;7.620;2022-11-24T05:35:48;9.90;99.90
6146;DHT22;3104;50.348;7.620;2022-11-24T05:38:15;9.80;99.90
6146;DHT22;3104;50.348;7.620;2022-11-24T05:40:41;9.90;99.90
6146;DHT22;3104;50.348;7.620;2022-11-24T05:43:14;10.00;99.90
6146;DHT22;3104;50.348;7.620;2022-11-24T05:45:41;9.90;99.90
6146;DHT22;3104;50.348;7.620;2022-11-24T05:48:10;9.90;99.90
6146;DHT22;3104;50.348;7.620;2022-11-24T05:50:37;9.80;99.90
6146;DHT22;3104;50.348;7.620;2022-11-24T05:53:10;10.00;99.90
6146;DHT22;3104;50.348;7.620;2022-11-24T05:55:37;9.80;99.90
6146;DHT22;3104;50.348;7.620;2022-11-24T05:58:06;9.90;99.90
6146;DHT22;3104;50.348;7.620;2022-11-24T06:00:33;10.00;99.90
6146;DHT22;3104;50.348;7.620;2022-11-24T06:03:00;10.00;99.90
6146;DHT22;3104;50.348;7.620;2022-11-24T06:05:26;9.90;99.90
6146;DHT22;3104;50.348;7.620;2022-11-24T06:07:53;9.90;99.90
6146;DHT22;3104;50.348;7.620;2022-11-24T06:10:20;9.90;99.90
6146;DHT22;3104;50.348;7.620;2022-11-24T06:12:46;10.00;99.90
6146;DHT22;3104;50.348;7.620;2022-11-24T06:15:12;10.00;99.90
6146;DHT22;3104;50.348;7.620;2022-11-24T06:17:38;10.00;99.90
6146;DHT22;3104;50.348;7.620;2022-11-24T06:20:06;9.90;99.90
6146;DHT22;3104;50.348;7.620;2022-11-24T06:22:32;9.80;99.90
6146;DHT22;3104;50.348;7.620;2022-11-24T06:24:58;9.80;99.90
6146;DHT22;3104;50.348;7.620;2022-11-24T06:27:24;9.90;99.90
6146;DHT22;3104;50.348;7.620;2022-11-24T06:29:50;9.90;99.90
6146;DHT22;3104;50.348;7.620;2022-11-24T06:32:16;9.90;99.90
6146;DHT22;3104;50.348;7.620;2022-11-24T06:34:41;10.00;99.90
6146;DHT22;3104;50.348;7.620;2022-11-24T06:37:07;9.90;99.90
6146;DHT22;3104;50.348;7.620;2022-11-24T06:39:33;9.90;99.90
6146;DHT22;3104;50.348;7.620;2022-11-24T06:41:58;9.90;99.90
6146;DHT22;3104;50.348;7.620;2022-11-24T06:44:24;9.90;99.90
6146;DHT22;3104;50.348;7.620;2022-11-24T06:46:50;9.90;99.90
6146;DHT22;3104;50.348;7.620;2022-11-24T06:49:15;9.90;99.90
6146;DHT22;3104;50.348;7.620;2022-11-24T06:51:41;10.00;99.90
6146;DHT22;3104;50.348;7.620;2022-11-24T06:54:08;9.80;99.90
6146;DHT22;3104;50.348;7.620;2022-11-24T06:56:34;9.80;99.90
6146;DHT22;3104;50.348;7.620;2022-11-24T06:59:00;9.80;99.90
6146;DHT22;3104;50.348;7.620;2022-11-24T07:01:27;9.70;99.90
6146;DHT22;3104;50.348;7.620;2022-11-24T07:03:54;9.70;99.90
6146;DHT22;3104;50.348;7.620;2022-11-24T07:06:21;9.80;99.90
6146;DHT22;3104;50.348;7.620;2022-11-24T07:08:47;9.70;99.90
6146;DHT22;3104;50.348;7.620;2022-11-24T07:11:15;9.70;99.90
6146;DHT22;3104;50.348;7.620;2022-11-24T07:13:42;9.70;99.90
6146;DHT22;3104;50.348;7.620;2022-11-24T07:16:22;9.80;99.90
6146;DHT22;3104;50.348;7.620;2022-11-24T07:18:49;9.70;99.90
6146;DHT22;3104;50.348;7.620;2022-11-24T07:21:16;9.70;99.90
6146;DHT22;3104;50.348;7.620;2022-11-24T07:23:42;9.70;99.90
6146;DHT22;3104;50.348;7.620;2022-11-24T07:26:09;9.70;99.90
6146;DHT22;3104;50.348;7.620;2022-11-24T07:28:35;9.70;99.90
6146;DHT22;3104;50.348;7.620;2022-11-24T07:31:08;9.70;99.90
6146;DHT22;3104;50.348;7.620;2022-11-24T07:33:35;9.70;99.90
6146;DHT22;3104;50.348;7.620;2022-11-24T07:36:01;9.70;99.90
6146;DHT22;3104;50.348;7.620;2022-11-24T07:38:28;9.70;99.90
6146;DHT22;3104;50.348;7.620;2022-11-24T07:40:59;9.70;99.90
6146;DHT22;3104;50.348;7.620;2022-11-24T07:43:25;9.70;99.90
6146;DHT22;3104;50.348;7.620;2022-11-24T07:45:51;9.70;99.90
6146;DHT22;3104;50.348;7.620;2022-11-24T07:48:17;9.80;99.90
6146;DHT22;3104;50.348;7.620;2022-11-24T07:50:42;9.90;99.90
6146;DHT22;3104;50.348;7.620;2022-11-24T07:53:08;9.80;99.90
6146;DHT22;3104;50.348;7.620;2022-11-24T07:55:33;9.80;99.90
6146;DHT22;3104;50.348;7.620;2022-11-24T07:57:59;9.90;99.90
6146;DHT22;3104;50.348;7.620;2022-11-24T08:00:25;9.90;99.90
6146;DHT22;3104;50.348;7.620;2022-11-24T08:02:51;9.80;99.90
6146;DHT22;3104;50.348;7.620;2022-11-24T08:05:17;9.80;99.90
6146;DHT22;3104;50.348;7.620;2022-11-24T08:07:43;9.80;99.90
6146;DHT22;3104;50.348;7.620;2022-11-24T08:10:08;9.80;99.90
6146;DHT22;3104;50.348;7.620;2022-11-24T08:12:34;9.70;99.90
6146;DHT22;3104;50.348;7.620;2022-11-24T08:15:00;9.80;99.90
6146;DHT22;3104;50.348;7.620;2022-11-24T08:17:27;9.80;99.90
6146;DHT22;3104;50.348;7.620;2022-11-24T08:19:53;9.70;99.90
6146;DHT22;3104;50.348;7.620;2022-11-24T08:22:18;9.80;99.90
6146;DHT22;3104;50.348;7.620;2022-11-24T08:24:44;9.80;99.90
6146;DHT22;3104;50.348;7.620;2022-11-24T08:27:14;9.70;99.90
6146;DHT22;3104;50.348;7.620;2022-11-24T08:29:39;9.80;99.90
6146;DHT22;3104;50.348;7.620;2022-11-24T08:32:06;9.80;99.90
6146;DHT22;3104;50.348;7.620;2022-11-24T08:34:31;9.80;99.90
6146;DHT22;3104;50.348;7.620;2022-11-24T08:36:57;9.80;99.90
6146;DHT22;3104;50.348;7.620;2022-11-24T08:39:23;9.80;99.90
6146;DHT22;3104;50.348;7.620;2022-11-24T08:41:48;9.80;99.90
6146;DHT22;3104;50.348;7.620;2022-11-24T08:44:14;9.80;99.90
6146;DHT22;3104;50.348;7.620;2022-11-24T08:46:41;9.80;99.90
6146;DHT22;3104;50.348;7.620;2022-11-24T08:49:07;9.80;99.90
6146;DHT22;3104;50.348;7.620;2022-11-24T08:51:33;9.70;99.90
6146;DHT22;3104;50.348;7.620;2022-11-24T08:53:59;9.80;99.90
6146;DHT22;3104;50.348;7.620;2022-11-24T08:56:30;9.70;99.90
6146;DHT22;3104;50.348;7.620;2022-11-24T08:58:56;9.70;99.90
6146;DHT22;3104;50.348;7.620;2022-11-24T09:01:23;9.80;99.90
6146;DHT22;3104;50.348;7.620;2022-11-24T09:03:49;10.20;99.90
6146;DHT22;3104;50.348;7.620;2022-11-24T09:06:17;10.60;99.90
6146;DHT22;3104;50.348;7.620;2022-11-24T09:08:43;10.80;99.90
6146;DHT22;3104;50.348;7.620;2022-11-24T09:11:10;10.70;99.90
6146;DHT22;3104;50.348;7.620;2022-11-24T09:13:38;10.30;99.90
6146;DHT22;3104;50.348;7.620;2022-11-24T09:16:06;10.20;99.90
6146;DHT22;3104;50.348;7.620;2022-11-24T09:18:32;10.30;99.90
6146;DHT22;3104;50.348;7.620;2022-11-24T09:21:11;10.50;99.90
6146;DHT22;3104;50.348;7.620;2022-11-24T09:23:37;10.40;99.90
6146;DHT22;3104;50.348;7.620;2022-11-24T09:26:14;10.20;99.90
6146;DHT22;3104;50.348;7.620;2022-11-24T09:28:41;10.30;99.90
6146;DHT22;3104;50.348;7.620;2022-11-24T09:31:09;10.30;99.90
6146;DHT22;3104;50.348;7.620;2022-11-24T09:33:35;10.20;99.90
6146;DHT22;3104;50.348;7.620;2022-11-24T09:36:02;10.20;99.90
6146;DHT22;3104;50.348;7.620;2022-11-24T09:38:28;10.10;99.90
6146;DHT22;3104;50.348;7.620;2022-11-24T09:40:54;10.00;99.90
6146;DHT22;3104;50.348;7.620;2022-11-24T09:44:06;10.10;99.90
6146;DHT22;3104;50.348;7.620;2022-11-24T09:47:05;10.20;99.90
6146;DHT22;3104;50.348;7.620;2022-11-24T09:52:38;10.20;99.90
6146;DHT22;3104;50.348;7.620;2022-11-24T09:58:09;10.30;99.90
6146;DHT22;3104;50.348;7.620;2022-11-24T10:00:36;10.30;99.90
6146;DHT22;3104;50.348;7.620;2022-11-24T10:03:01;10.60;99.90
6146;DHT22;3104;50.348;7.620;2022-11-24T10:05:29;10.70;99.90
6146;DHT22;3104;50.348;7.620;2022-11-24T10:10:55;10.50;99.90
6146;DHT22;3104;50.348;7.620;2022-11-24T10:13:40;10.10;99.90
6146;DHT22;3104;50.348;7.620;2022-11-24T10:19:46;10.00;99.90
6146;DHT22;3104;50.348;7.620;2022-11-24T10:22:16;10.40;99.90
6146;DHT22;3104;50.348;7.620;2022-11-24T10:25:07;10.20;99.90
6146;DHT22;3104;50.348;7.620;2022-11-24T10:27:37;10.40;99.90
6146;DHT22;3104;50.348;7.620;2022-11-24T10:30:18;10.60;99.90
6146;DHT22;3104;50.348;7.620;2022-11-24T10:32:47;10.70;99.90
6146;DHT22;3104;50.348;7.620;2022-11-24T10:35:23;10.60;99.90
6146;DHT22;3104;50.348;7.620;2022-11-24T10:38:00;10.90;99.90
6146;DHT22;3104;50.348;7.620;2022-11-24T10:40:38;10.80;99.90
6146;DHT22;3104;50.348;7.620;2022-11-24T10:43:04;11.10;99.90
6146;DHT22;3104;50.348;7.620;2022-11-24T10:45:35;11.30;99.90
6146;DHT22;3104;50.348;7.620;2022-11-24T10:48:07;11.10;99.90
6146;DHT22;3104;50.348;7.620;2022-11-24T10:50:39;10.90;99.90
6146;DHT22;3104;50.348;7.620;2022-11-24T10:53:23;11.20;99.90
6146;DHT22;3104;50.348;7.620;2022-11-24T11:00:55;11.80;99.90
6146;DHT22;3104;50.348;7.620;2022-11-24T11:03:23;11.70;99.90
6146;DHT22;3104;50.348;7.620;2022-11-24T11:05:56;11.40;99.90
6146;DHT22;3104;50.348;7.620;2022-11-24T11:08:27;11.20;99.90
6146;DHT22;3104;50.348;7.620;2022-11-24T11:11:12;11.40;99.90
6146;DHT22;3104;50.348;7.620;2022-11-24T11:13:55;11.40;99.90
6146;DHT22;3104;50.348;7.620;2022-11-24T11:18:55;11.70;99.90
6146;DHT22;3104;50.348;7.620;2022-11-24T11:21:35;12.00;99.90
6146;DHT22;3104;50.348;7.620;2022-11-24T11:24:13;12.10;99.90
6146;DHT22;3104;50.348;7.620;2022-11-24T11:26:41;12.30;99.90
6146;DHT22;3104;50.348;7.620;2022-11-24T11:31:33;11.90;99.90
6146;DHT22;3104;50.348;7.620;2022-11-24T11:36:38;12.20;99.90
6146;DHT22;3104;50.348;7.620;2022-11-24T11:39:04;12.00;99.90
6146;DHT22;3104;50.348;7.620;2022-11-24T11:41:35;11.70;99.90
6146;DHT22;3104;50.348;7.620;2022-11-24T11:46:50;11.70;99.90
6146;DHT22;3104;50.348;7.620;2022-11-24T11:49:17;11.80;99.90
6146;DHT22;3104;50.348;7.620;2022-11-24T11:52:07;12.20;99.90
6146;DHT22;3104;50.348;7.620;2022-11-24T11:57:54;12.90;99.90
6146;DHT22;3104;50.348;7.620;2022-11-24T12:00:24;12.80;99.90
6146;DHT22;3104;50.348;7.620;2022-11-24T12:16:33;13.00;99.90
6146;DHT22;3104;50.348;7.620;2022-11-24T12:21:54;13.60;99.90
6146;DHT22;3104;50.348;7.620;2022-11-24T12:24:46;13.50;99.90
6146;DHT22;3104;50.348;7.620;2022-11-24T12:30:14;13.20;99.90
6146;DHT22;3104;50.348;7.620;2022-11-24T12:41:20;13.30;99.90
6146;DHT22;3104;50.348;7.620;2022-11-24T12:43:50;13.30;99.90
6146;DHT22;3104;50.348;7.620;2022-11-24T12:51:41;12.90;99.90
6146;DHT22;3104;50.348;7.620;2022-11-24T12:54:14;12.80;99.90
6146;DHT22;3104;50.348;7.620;2022-11-24T13:02:03;13.10;99.90
6146;DHT22;3104;50.348;7.620;2022-11-24T13:07:18;12.80;99.90
6146;DHT22;3104;50.348;7.620;2022-11-24T13:15:29;12.90;99.90
6146;DHT22;3104;50.348;7.620;2022-11-24T13:17:56;12.80;99.90
6146;DHT22;3104;50.348;7.620;2022-11-24T13:20:37;12.80;99.90
6146;DHT22;3104;50.348;7.620;2022-11-24T13:23:05;12.80;99.90
6146;DHT22;3104;50.348;7.620;2022-11-24T13:26:14;12.80;99.90
6146;DHT22;3104;50.348;7.620;2022-11-24T13:29:02;12.70;99.90
6146;DHT22;3104;50.348;7.620;2022-11-24T13:31:29;13.10;99.90
6146;DHT22;3104;50.348;7.620;2022-11-24T13:33:55;13.00;99.90
6146;DHT22;3104;50.348;7.620;2022-11-24T13:38:50;12.70;99.90
6146;DHT22;3104;50.348;7.620;2022-11-24T13:44:22;12.80;99.90
6146;DHT22;3104;50.348;7.620;2022-11-24T13:46:58;12.90;99.90
6146;DHT22;3104;50.348;7.620;2022-11-24T13:49:35;12.90;99.90
6146;DHT22;3104;50.348;7.620;2022-11-24T14:00:28;12.60;99.90
6146;DHT22;3104;50.348;7.620;2022-11-24T14:03:02;12.50;99.90
6146;DHT22;3104;50.348;7.620;2022-11-24T14:05:36;12.60;99.90
6146;DHT22;3104;50.348;7.620;2022-11-24T14:08:04;12.50;99.90
6146;DHT22;3104;50.348;7.620;2022-11-24T14:10:35;12.50;99.90
6146;DHT22;3104;50.348;7.620;2022-11-24T14:13:27;12.40;99.90
6146;DHT22;3104;50.348;7.620;2022-11-24T14:16:03;12.40;99.90
6146;DHT22;3104;50.348;7.620;2022-11-24T14:18:31;12.60;99.90
6146;DHT22;3104;50.348;7.620;2022-11-24T14:20:58;12.50;99.90
6146;DHT22;3104;50.348;7.620;2022-11-24T14:23:24;12.40;99.90
6146;DHT22;3104;50.348;7.620;2022-11-24T14:25:50;12.60;99.90
6146;DHT22;3104;50.348;7.620;2022-11-24T14:28:25;12.60;99.90
6146;DHT22;3104;50.348;7.620;2022-11-24T14:31:08;12.40;99.90
6146;DHT22;3104;50.348;7.620;2022-11-24T14:33:34;12.40;99.90
6146;DHT22;3104;50.348;7.620;2022-11-24T14:36:00;12.50;99.90
6146;DHT22;3104;50.348;7.620;2022-11-24T14:38:26;12.40;99.90
6146;DHT22;3104;50.348;7.620;2022-11-24T14:40:53;12.50;99.90
6146;DHT22;3104;50.348;7.620;2022-11-24T14:43:32;12.50;99.90
6146;DHT22;3104;50.348;7.620;2022-11-24T14:46:00;12.60;99.90
6146;DHT22;3104;50.348;7.620;2022-11-24T14:48:31;12.30;99.90
6146;DHT22;3104;50.348;7.620;2022-11-24T14:51:19;12.10;99.90
6146;DHT22;3104;50.348;7.620;2022-11-24T14:53:51;11.80;99.90
6146;DHT22;3104;50.348;7.620;2022-11-24T14:56:26;11.90;99.90
6146;DHT22;3104;50.348;7.620;2022-11-24T14:58:52;11.80;99.90
6146;DHT22;3104;50.348;7.620;2022-11-24T15:04:12;11.70;99.90
6146;DHT22;3104;50.348;7.620;2022-11-24T15:06:40;11.80;99.90
6146;DHT22;3104;50.348;7.620;2022-11-24T15:09:17;11.60;99.90
6146;DHT22;3104;50.348;7.620;2022-11-24T15:11:43;11.70;99.90
6146;DHT22;3104;50.348;7.620;2022-11-24T15:14:45;11.70;99.90
6146;DHT22;3104;50.348;7.620;2022-11-24T15:17:16;11.80;99.90
6146;DHT22;3104;50.348;7.620;2022-11-24T15:19:46;11.80;99.90
6146;DHT22;3104;50.348;7.620;2022-11-24T15:24:53;11.60;99.90
6146;DHT22;3104;50.348;7.620;2022-11-24T15:27:19;11.60;99.90
6146;DHT22;3104;50.348;7.620;2022-11-24T15:29:44;11.80;99.90
6146;DHT22;3104;50.348;7.620;2022-11-24T15:32:13;11.60;99.90
6146;DHT22;3104;50.348;7.620;2022-11-24T15:34:40;11.20;99.90
6146;DHT22;3104;50.348;7.620;2022-11-24T15:37:07;10.90;99.90
6146;DHT22;3104;50.348;7.620;2022-11-24T15:39:33;10.80;99.90
6146;DHT22;3104;50.348;7.620;2022-11-24T15:41:59;10.60;99.90
6146;DHT22;3104;50.348;7.620;2022-11-24T15:44:24;10.90;99.90
6146;DHT22;3104;50.348;7.620;2022-11-24T15:46:50;11.00;99.90
6146;DHT22;3104;50.348;7.620;2022-11-24T15:49:16;11.00;99.90
6146;DHT22;3104;50.348;7.620;2022-11-24T15:51:43;11.10;99.90
6146;DHT22;3104;50.348;7.620;2022-11-24T15:54:16;11.10;99.90
6146;DHT22;3104;50.348;7.620;2022-11-24T15:56:42;11.20;99.90
6146;DHT22;3104;50.348;7.620;2022-11-24T15:59:13;11.20;99.90
6146;DHT22;3104;50.348;7.620;2022-11-24T16:01:40;11.00;99.90
6146;DHT22;3104;50.348;7.620;2022-11-24T16:04:07;11.00;99.90
6146;DHT22;3104;50.348;7.620;2022-11-24T16:06:32;11.10;99.90
6146;DHT22;3104;50.348;7.620;2022-11-24T16:08:58;11.20;99.90
6146;DHT22;3104;50.348;7.620;2022-11-24T16:11:23;11.20;99.90
6146;DHT22;3104;50.348;7.620;2022-11-24T16:13:50;11.10;99.90
6146;DHT22;3104;50.348;7.620;2022-11-24T16:16:16;11.30;99.90
6146;DHT22;3104;50.348;7.620;2022-11-24T16:18:41;11.40;99.90
6146;DHT22;3104;50.348;7.620;2022-11-24T16:21:09;11.30;99.90
6146;DHT22;3104;50.348;7.620;2022-11-24T16:23:35;11.30;99.90
6146;DHT22;3104;50.348;7.620;2022-11-24T16:26:04;11.30;99.90
6146;DHT22;3104;50.348;7.620;2022-11-24T16:28:30;11.10;99.90
6146;DHT22;3104;50.348;7.620;2022-11-24T16:30:56;11.00;99.90
6146;DHT22;3104;50.348;7.620;2022-11-24T16:33:21;11.00;99.90
6146;DHT22;3104;50.348;7.620;2022-11-24T16:35:47;11.10;99.90
6146;DHT22;3104;50.348;7.620;2022-11-24T16:38:17;10.90;99.90
6146;DHT22;3104;50.348;7.620;2022-11-24T16:40:43;10.90;99.90
6146;DHT22;3104;50.348;7.620;2022-11-24T16:43:09;10.80;99.90
6146;DHT22;3104;50.348;7.620;2022-11-24T16:45:35;10.80;99.90
6146;DHT22;3104;50.348;7.620;2022-11-24T16:48:01;10.80;99.90
6146;DHT22;3104;50.348;7.620;2022-11-24T16:50:26;10.70;99.90
6146;DHT22;3104;50.348;7.620;2022-11-24T16:52:52;10.60;99.90
6146;DHT22;3104;50.348;7.620;2022-11-24T16:55:18;10.50;99.90
6146;DHT22;3104;50.348;7.620;2022-11-24T16:57:43;10.60;99.90
6146;DHT22;3104;50.348;7.620;2022-11-24T17:00:10;10.50;99.90
6146;DHT22;3104;50.348;7.620;2022-11-24T17:02:36;10.40;99.90
6146;DHT22;3104;50.348;7.620;2022-11-24T17:05:02;10.60;99.90
6146;DHT22;3104;50.348;7.620;2022-11-24T17:07:27;10.40;99.90
6146;DHT22;3104;50.348;7.620;2022-11-24T17:09:53;10.40;99.90
6146;DHT22;3104;50.348;7.620;2022-11-24T17:12:19;10.50;99.90
6146;DHT22;3104;50.348;7.620;2022-11-24T17:14:44;10.50;99.90
6146;DHT22;3104;50.348;7.620;2022-11-24T17:17:10;10.30;99.90
6146;DHT22;3104;50.348;7.620;2022-11-24T17:19:36;10.40;99.90
6146;DHT22;3104;50.348;7.620;2022-11-24T17:22:02;10.70;99.90
6146;DHT22;3104;50.348;7.620;2022-11-24T17:24:28;10.40;99.90
6146;DHT22;3104;50.348;7.620;2022-11-24T17:26:53;10.40;99.90
6146;DHT22;3104;50.348;7.620;2022-11-24T17:29:19;10.50;99.90
6146;DHT22;3104;50.348;7.620;2022-11-24T17:31:45;10.50;99.90
6146;DHT22;3104;50.348;7.620;2022-11-24T17:34:12;10.30;99.90
6146;DHT22;3104;50.348;7.620;2022-11-24T17:36:37;10.40;99.90
6146;DHT22;3104;50.348;7.620;2022-11-24T17:39:05;10.20;99.90
6146;DHT22;3104;50.348;7.620;2022-11-24T17:41:33;10.20;99.90
6146;DHT22;3104;50.348;7.620;2022-11-24T17:43:59;10.30;99.90
6146;DHT22;3104;50.348;7.620;2022-11-24T17:46:26;10.40;99.90
6146;DHT22;3104;50.348;7.620;2022-11-24T17:48:52;10.40;99.90
6146;DHT22;3104;50.348;7.620;2022-11-24T17:51:20;10.50;99.90
6146;DHT22;3104;50.348;7.620;2022-11-24T17:53:47;10.40;99.90
6146;DHT22;3104;50.348;7.620;2022-11-24T17:56:22;10.30;99.90
6146;DHT22;3104;50.348;7.620;2022-11-24T17:58:51;10.20;99.90
6146;DHT22;3104;50.348;7.620;2022-11-24T18:01:19;10.20;99.90
6146;DHT22;3104;50.348;7.620;2022-11-24T18:03:45;10.20;99.90